createdAt,value
2019-03-03T00:02:07.307Z,8.50
2019-03-03T00:06:43.136Z,8.50
2019-03-03T00:11:18.937Z,8.50
2019-03-03T00:15:54.739Z,8.50
2019-03-03T00:20:30.517Z,8.50
2019-03-03T00:25:07.306Z,8.40
2019-03-03T00:29:43.064Z,8.30
2019-03-03T00:34:18.848Z,8.30
2019-03-03T00:39:02.614Z,8.40
2019-03-03T00:43:55.441Z,8.40
2019-03-03T00:48:56.228Z,8.40
2019-03-03T00:53:55.006Z,8.40
2019-03-03T00:58:44.738Z,8.40
2019-03-03T01:03:42.668Z,8.30
2019-03-03T01:08:55.492Z,8.30
2019-03-03T01:13:48.724Z,8.30
2019-03-03T01:18:43.448Z,8.30
2019-03-03T01:23:29.942Z,8.50
2019-03-03T01:28:05.724Z,8.30
2019-03-03T01:32:41.497Z,8.30
2019-03-03T01:37:17.280Z,8.30
2019-03-03T01:41:53.081Z,8.40
2019-03-03T01:46:28.898Z,8.40
2019-03-03T01:51:04.648Z,8.30
2019-03-03T01:55:40.424Z,8.30
2019-03-03T02:00:21.254Z,8.30
2019-03-03T02:04:57.070Z,8.20
2019-03-03T02:09:33.237Z,8.20
2019-03-03T02:14:09.421Z,8.20
2019-03-03T02:18:45.193Z,8.20
2019-03-03T02:23:20.332Z,8.10
2019-03-03T02:27:56.083Z,8.00
2019-03-03T02:32:31.865Z,7.90
2019-03-03T02:37:07.621Z,7.80
2019-03-03T02:41:43.722Z,7.70
2019-03-03T02:46:19.594Z,7.60
2019-03-03T02:50:55.376Z,7.50
2019-03-03T02:55:31.142Z,7.50
2019-03-03T03:00:11.800Z,7.50
2019-03-03T03:04:48.717Z,7.40
2019-03-03T03:09:27.777Z,7.30
2019-03-03T03:14:22.454Z,7.30
2019-03-03T03:19:09.937Z,7.30
2019-03-03T03:23:54.709Z,7.20
2019-03-03T03:28:44.513Z,7.00
2019-03-03T03:33:32.183Z,6.90
2019-03-03T03:38:25.539Z,6.90
2019-03-03T03:43:14.283Z,6.90
2019-03-03T03:48:07.889Z,6.90
2019-03-03T03:52:50.605Z,6.80
2019-03-03T03:57:43.907Z,6.90
2019-03-03T04:02:37.953Z,6.70
2019-03-03T04:07:33.129Z,6.50
2019-03-03T04:12:26.718Z,6.40
2019-03-03T04:17:20.005Z,6.40
2019-03-03T04:22:11.604Z,6.30
2019-03-03T04:27:09.345Z,6.10
2019-03-03T04:32:02.586Z,6.00
2019-03-03T04:36:45.997Z,6.10
2019-03-03T04:41:40.705Z,6.00
2019-03-03T04:46:53.646Z,6.20
2019-03-03T04:51:46.871Z,6.10
2019-03-03T04:56:41.794Z,6.00
2019-03-03T05:01:28.524Z,5.90
2019-03-03T05:06:20.604Z,5.70
2019-03-03T05:11:13.548Z,5.80
2019-03-03T05:16:08.331Z,5.80
2019-03-03T05:20:49.142Z,6.00
2019-03-03T05:25:24.935Z,5.90
2019-03-03T05:30:00.713Z,6.00
2019-03-03T05:34:36.521Z,5.90
2019-03-03T05:39:12.276Z,6.10
2019-03-03T05:43:48.069Z,6.20
2019-03-03T05:48:23.848Z,6.30
2019-03-03T05:52:59.674Z,6.30
2019-03-03T05:57:35.446Z,6.30
2019-03-03T06:02:11.226Z,6.40
2019-03-03T06:06:47.061Z,6.30
2019-03-03T06:11:22.840Z,6.30
2019-03-03T06:15:58.680Z,6.20
2019-03-03T06:20:34.459Z,5.90
2019-03-03T06:25:11.137Z,6.00
2019-03-03T06:29:46.920Z,6.00
2019-03-03T06:34:22.693Z,5.90
2019-03-03T06:38:58.494Z,6.00
2019-03-03T06:43:34.252Z,6.30
2019-03-03T06:48:10.019Z,6.40
2019-03-03T06:52:45.784Z,6.50
2019-03-03T06:57:21.577Z,6.80
2019-03-03T07:01:57.333Z,6.70
2019-03-03T07:06:33.140Z,6.80
2019-03-03T07:11:10.083Z,6.90
2019-03-03T07:15:46.078Z,6.90
2019-03-03T07:20:21.849Z,7.00
2019-03-03T07:24:57.630Z,6.90
2019-03-03T07:29:33.404Z,6.90
2019-03-03T07:34:09.465Z,6.90
2019-03-03T07:38:45.240Z,7.10
2019-03-03T07:43:21.005Z,7.10
2019-03-03T07:47:56.787Z,7.20
2019-03-03T07:52:33.048Z,7.30
2019-03-03T07:57:09.125Z,7.30
2019-03-03T08:01:44.951Z,7.40
2019-03-03T08:06:20.696Z,7.60
2019-03-03T08:10:56.486Z,7.60
2019-03-03T08:15:32.248Z,7.70
2019-03-03T08:20:08.688Z,7.80
2019-03-03T08:24:44.469Z,7.90
2019-03-03T08:29:20.260Z,7.80
2019-03-03T08:33:56.025Z,7.90
2019-03-03T08:38:31.796Z,7.90
2019-03-03T08:43:26.510Z,7.90
2019-03-03T08:48:36.329Z,7.90
2019-03-03T08:53:34.094Z,8.00
2019-03-03T08:58:34.618Z,8.10
2019-03-03T09:03:20.129Z,8.30
2019-03-03T09:08:08.302Z,8.40
2019-03-03T09:12:56.646Z,8.50
2019-03-03T09:17:40.353Z,8.60
2019-03-03T09:22:23.105Z,8.70
2019-03-03T09:27:08.849Z,8.80
2019-03-03T09:32:09.651Z,9.00
2019-03-03T09:37:16.657Z,9.10
2019-03-03T09:42:14.396Z,9.10
2019-03-03T09:47:19.491Z,9.10
2019-03-03T09:52:17.066Z,9.30
2019-03-03T09:57:13.552Z,9.30
2019-03-03T10:01:56.144Z,9.50
2019-03-03T10:06:41.469Z,9.60
2019-03-03T10:11:43.122Z,9.70
2019-03-03T10:16:53.228Z,9.80
2019-03-03T10:21:47.961Z,9.90
2019-03-03T10:26:32.074Z,10.00
2019-03-03T10:31:21.746Z,10.10
2019-03-03T10:36:15.161Z,10.20
2019-03-03T10:41:25.229Z,10.50
2019-03-03T10:46:18.761Z,10.60
2019-03-03T10:51:13.508Z,10.70
2019-03-03T10:56:08.226Z,10.80
2019-03-03T11:00:55.629Z,10.90
2019-03-03T11:05:42.076Z,11.10
2019-03-03T11:10:36.834Z,11.30
2019-03-03T11:15:35.866Z,11.30
2019-03-03T11:20:47.043Z,11.50
2019-03-03T11:25:41.910Z,11.80
2019-03-03T11:30:29.172Z,11.90
2019-03-03T11:35:24.402Z,12.00
2019-03-03T11:40:12.459Z,12.20
2019-03-03T11:45:07.196Z,12.20
2019-03-03T11:49:56.912Z,12.30
2019-03-03T11:54:54.401Z,12.40
2019-03-03T11:59:42.844Z,12.60
2019-03-03T12:04:37.558Z,12.70
2019-03-03T12:09:31.469Z,12.80
2019-03-03T12:14:25.188Z,13.00
2019-03-03T12:19:18.992Z,13.30
2019-03-03T12:24:13.711Z,13.40
2019-03-03T12:29:07.012Z,13.60
2019-03-03T12:34:10.834Z,13.70
2019-03-03T12:39:19.393Z,13.70
2019-03-03T12:44:07.711Z,13.80
2019-03-03T12:49:01.264Z,14.00
2019-03-03T12:54:06.171Z,14.00
2019-03-03T12:59:09.831Z,13.90
2019-03-03T13:04:16.861Z,14.00
2019-03-03T13:09:14.657Z,14.30
2019-03-03T13:14:24.667Z,14.20
2019-03-03T13:19:37.844Z,14.30
2019-03-03T13:24:38.385Z,14.40
2019-03-03T13:29:27.269Z,14.50
2019-03-03T13:34:25.232Z,14.40
2019-03-03T13:39:19.925Z,14.40
2019-03-03T13:43:55.926Z,14.50
2019-03-03T13:48:31.781Z,14.60
2019-03-03T13:53:07.769Z,14.50
2019-03-03T13:57:43.693Z,14.60
2019-03-03T14:02:19.952Z,14.70
2019-03-03T14:06:55.757Z,14.70
2019-03-03T14:11:31.836Z,14.70
2019-03-03T14:16:07.637Z,14.80
2019-03-03T14:20:44.642Z,14.90
2019-03-03T14:25:20.828Z,14.90
2019-03-03T14:29:56.613Z,14.90
2019-03-03T14:34:33.510Z,14.90
2019-03-03T14:39:09.601Z,15.10
2019-03-03T14:43:45.426Z,15.20
2019-03-03T14:48:20.757Z,15.20
2019-03-03T14:52:56.582Z,15.20
2019-03-03T14:57:32.364Z,15.20
2019-03-03T15:02:08.230Z,15.20
2019-03-03T15:06:45.088Z,15.10
2019-03-03T15:11:20.909Z,15.00
2019-03-03T15:15:56.688Z,14.80
2019-03-03T15:20:33.310Z,14.80
2019-03-03T15:25:10.388Z,14.70
2019-03-03T15:29:46.236Z,14.70
2019-03-03T15:34:22.021Z,14.70
2019-03-03T15:38:57.849Z,14.70
2019-03-03T15:43:33.638Z,14.70
2019-03-03T15:48:09.517Z,14.60
2019-03-03T15:52:45.718Z,14.50
2019-03-03T15:57:21.563Z,14.60
2019-03-03T16:01:57.397Z,14.60
2019-03-03T16:06:33.223Z,14.50
2019-03-03T16:11:08.994Z,14.40
2019-03-03T16:15:44.807Z,14.50
2019-03-03T16:20:20.621Z,14.60
2019-03-03T16:24:56.425Z,14.50
2019-03-03T16:29:32.196Z,14.40
2019-03-03T16:34:08.029Z,14.30
2019-03-03T16:38:43.821Z,14.30
2019-03-03T16:43:21.472Z,14.10
2019-03-03T16:47:57.265Z,13.90
2019-03-03T16:52:33.059Z,13.80
2019-03-03T16:57:08.822Z,13.60
2019-03-03T17:01:44.610Z,13.50
2019-03-03T17:06:20.383Z,13.50
2019-03-03T17:10:56.177Z,13.20
2019-03-03T17:15:31.948Z,13.10
2019-03-03T17:20:09.502Z,13.00
2019-03-03T17:24:45.337Z,12.90
2019-03-03T17:29:21.135Z,12.80
2019-03-03T17:33:56.966Z,12.60
2019-03-03T17:38:32.762Z,12.60
2019-03-03T17:43:08.517Z,12.50
2019-03-03T17:47:44.288Z,12.40
2019-03-03T17:52:21.161Z,12.30
2019-03-03T17:56:56.959Z,12.00
2019-03-03T18:01:32.733Z,12.00
2019-03-03T18:06:11.277Z,12.00
2019-03-03T18:10:47.041Z,11.90
2019-03-03T18:15:24.058Z,11.90
2019-03-03T18:19:59.835Z,11.80
2019-03-03T18:24:35.609Z,11.70
2019-03-03T18:29:11.389Z,11.60
2019-03-03T18:33:47.187Z,11.40
2019-03-03T18:38:22.979Z,11.40
2019-03-03T18:42:58.766Z,11.40
2019-03-03T18:47:34.532Z,11.30
2019-03-03T18:52:10.320Z,11.30
2019-03-03T18:56:46.091Z,11.20
2019-03-03T19:01:21.861Z,11.30
2019-03-03T19:05:57.645Z,11.30
2019-03-03T19:10:33.992Z,11.20
2019-03-03T19:15:12.925Z,11.20
2019-03-03T19:19:48.717Z,11.30
2019-03-03T19:24:24.485Z,11.30
2019-03-03T19:29:00.306Z,11.20
2019-03-03T19:33:43.477Z,11.20
2019-03-03T19:38:19.260Z,11.20
2019-03-03T19:42:55.062Z,11.10
2019-03-03T19:47:31.064Z,11.00
2019-03-03T19:52:07.305Z,11.10
2019-03-03T19:56:43.099Z,11.10
2019-03-03T20:01:19.064Z,11.10
2019-03-03T20:05:54.926Z,11.20
2019-03-03T20:10:30.705Z,11.30
2019-03-03T20:15:09.128Z,11.20
2019-03-03T20:19:44.893Z,11.10
2019-03-03T20:24:20.973Z,10.90
2019-03-03T20:28:56.741Z,10.90
2019-03-03T20:33:32.537Z,10.80
2019-03-03T20:38:08.509Z,10.80
2019-03-03T20:42:44.315Z,10.90
2019-03-03T20:47:20.128Z,10.80
2019-03-03T20:51:55.914Z,10.90
2019-03-03T20:56:31.677Z,10.90
2019-03-03T21:01:07.466Z,10.90
2019-03-03T21:05:43.232Z,10.80
2019-03-03T21:10:20.674Z,10.80
2019-03-03T21:14:56.477Z,10.70
2019-03-03T21:19:32.288Z,10.80
2019-03-03T21:24:08.041Z,10.70
2019-03-03T21:28:43.818Z,10.60
2019-03-03T21:33:19.657Z,10.60
2019-03-03T21:37:55.446Z,10.70
2019-03-03T21:42:31.208Z,10.60
2019-03-03T21:47:07.009Z,10.40
2019-03-03T21:51:42.825Z,10.40
2019-03-03T21:56:19.109Z,10.60
2019-03-03T22:00:54.873Z,10.70
2019-03-03T22:05:30.681Z,10.50
2019-03-03T22:10:07.269Z,10.60
2019-03-03T22:14:44.826Z,10.90
2019-03-03T22:19:18.649Z,11.10
2019-03-03T22:23:54.433Z,11.20
2019-03-03T22:28:30.197Z,11.20
2019-03-03T22:33:05.980Z,11.10
2019-03-03T22:37:41.749Z,11.10
2019-03-03T22:42:17.528Z,11.00
2019-03-03T22:46:53.300Z,11.10
2019-03-03T22:51:29.073Z,11.30
2019-03-03T22:56:04.874Z,11.40
2019-03-03T23:01:13.649Z,11.30
2019-03-03T23:05:58.913Z,11.20
2019-03-03T23:10:34.885Z,11.10
2019-03-03T23:15:38.717Z,11.10
2019-03-03T23:20:46.110Z,11.10
2019-03-03T23:25:49.954Z,11.10
2019-03-03T23:30:25.785Z,11.10
2019-03-03T23:35:01.568Z,11.10
2019-03-03T23:39:37.334Z,11.10
2019-03-03T23:44:13.121Z,11.10
2019-03-03T23:48:48.897Z,11.10
2019-03-03T23:53:24.685Z,11.10
2019-03-03T23:58:00.485Z,11.10
